createdAt,value
2018-12-27T00:00:30.854Z,-2.20
2018-12-27T00:02:07.314Z,-2.20
2018-12-27T00:03:44.015Z,-2.20
2018-12-27T00:05:20.408Z,-2.20
2018-12-27T00:06:57.031Z,-2.20
2018-12-27T00:08:33.559Z,-2.20
2018-12-27T00:10:10.260Z,-2.20
2018-12-27T00:11:46.971Z,-2.10
2018-12-27T00:13:23.799Z,-2.10
2018-12-27T00:15:00.609Z,-2.10
2018-12-27T00:16:37.246Z,-2.10
2018-12-27T00:18:13.902Z,-2.00
2018-12-27T00:19:50.587Z,-2.00
2018-12-27T00:21:27.043Z,-2.00
2018-12-27T00:23:03.898Z,-2.00
2018-12-27T00:24:40.623Z,-2.00
2018-12-27T00:26:17.216Z,-2.00
2018-12-27T00:27:53.995Z,-2.00
2018-12-27T00:29:30.692Z,-1.90
2018-12-27T00:31:07.430Z,-1.90
2018-12-27T00:32:45.675Z,-1.90
2018-12-27T00:34:22.389Z,-1.90
2018-12-27T00:36:00.076Z,-1.90
2018-12-27T00:37:36.835Z,-1.90
2018-12-27T00:39:13.365Z,-1.90
2018-12-27T00:40:50.049Z,-1.90
2018-12-27T00:42:26.550Z,-1.90
2018-12-27T00:44:03.277Z,-1.90
2018-12-27T00:45:39.860Z,-1.90
2018-12-27T00:47:16.478Z,-1.90
2018-12-27T00:48:53.088Z,-1.90
2018-12-27T00:50:31.139Z,-1.90
2018-12-27T00:52:07.622Z,-1.90
2018-12-27T00:53:44.092Z,-1.90
2018-12-27T00:55:20.522Z,-2.00
2018-12-27T00:56:57.467Z,-2.00
2018-12-27T00:58:33.915Z,-2.00
2018-12-27T01:00:10.452Z,-2.00
2018-12-27T01:01:47.171Z,-2.00
2018-12-27T01:03:23.655Z,-2.00
2018-12-27T01:05:00.352Z,-2.00
2018-12-27T01:06:36.968Z,-2.00
2018-12-27T01:08:13.517Z,-2.00
2018-12-27T01:09:50.022Z,-2.00
2018-12-27T01:11:26.747Z,-2.00
2018-12-27T01:13:03.397Z,-2.10
2018-12-27T01:14:40.158Z,-2.10
2018-12-27T01:16:16.798Z,-2.10
2018-12-27T01:17:53.336Z,-2.20
2018-12-27T01:19:30.135Z,-2.20
2018-12-27T01:21:07.640Z,-2.20
2018-12-27T01:22:44.388Z,-2.30
2018-12-27T01:24:21.171Z,-2.30
2018-12-27T01:25:57.709Z,-2.30
2018-12-27T01:27:34.543Z,-2.40
2018-12-27T01:29:11.518Z,-2.40
2018-12-27T01:30:48.673Z,-2.40
2018-12-27T01:32:25.239Z,-2.50
2018-12-27T01:34:01.899Z,-2.60
2018-12-27T01:35:38.404Z,-2.60
2018-12-27T01:37:15.522Z,-2.70
2018-12-27T01:38:52.409Z,-2.70
2018-12-27T01:40:29.162Z,-2.80
2018-12-27T01:42:05.851Z,-2.80
2018-12-27T01:43:42.431Z,-2.80
2018-12-27T01:45:19.159Z,-2.90
2018-12-27T01:46:56.033Z,-2.90
2018-12-27T01:48:32.674Z,-2.90
2018-12-27T01:50:09.306Z,-2.90
2018-12-27T01:51:46.045Z,-2.90
2018-12-27T01:53:22.738Z,-2.90
2018-12-27T01:54:59.365Z,-3.00
2018-12-27T01:56:35.943Z,-3.00
2018-12-27T01:58:12.567Z,-3.00
2018-12-27T01:59:49.172Z,-3.00
2018-12-27T02:01:25.676Z,-3.10
2018-12-27T02:03:02.320Z,-3.00
2018-12-27T02:04:39.051Z,-3.10
2018-12-27T02:06:15.563Z,-3.10
2018-12-27T02:07:52.108Z,-3.10
2018-12-27T02:09:28.669Z,-3.10
2018-12-27T02:11:05.314Z,-3.10
2018-12-27T02:12:41.926Z,-3.10
2018-12-27T02:14:18.214Z,-3.10
2018-12-27T02:15:54.767Z,-3.10
2018-12-27T02:17:31.286Z,-3.10
2018-12-27T02:19:07.845Z,-3.00
2018-12-27T02:20:44.071Z,-3.00
2018-12-27T02:22:20.247Z,-3.00
2018-12-27T02:23:56.431Z,-2.90
2018-12-27T02:25:32.827Z,-2.90
2018-12-27T02:27:09.075Z,-3.00
2018-12-27T02:28:45.291Z,-3.00
2018-12-27T02:30:21.575Z,-3.00
2018-12-27T02:31:57.914Z,-3.00
2018-12-27T02:33:35.563Z,-3.10
2018-12-27T02:35:12.069Z,-3.10
2018-12-27T02:36:48.288Z,-3.10
2018-12-27T02:38:24.499Z,-3.10
2018-12-27T02:40:00.702Z,-3.10
2018-12-27T02:41:38.743Z,-3.10
2018-12-27T02:43:15.034Z,-3.10
2018-12-27T02:44:51.251Z,-3.20
2018-12-27T02:46:27.468Z,-3.20
2018-12-27T02:48:03.655Z,-3.20
2018-12-27T02:49:39.973Z,-3.10
2018-12-27T02:51:16.290Z,-3.10
2018-12-27T02:52:52.504Z,-3.10
2018-12-27T02:54:28.706Z,-3.10
2018-12-27T02:56:04.915Z,-3.10
2018-12-27T02:57:41.099Z,-3.10
2018-12-27T02:59:17.394Z,-3.10
2018-12-27T03:00:53.579Z,-3.10
2018-12-27T03:02:29.883Z,-3.10
2018-12-27T03:04:06.149Z,-3.10
2018-12-27T03:05:42.342Z,-3.20
2018-12-27T03:07:18.583Z,-3.10
2018-12-27T03:08:54.841Z,-3.20
2018-12-27T03:10:31.227Z,-3.10
2018-12-27T03:12:07.634Z,-3.20
2018-12-27T03:13:43.872Z,-3.10
2018-12-27T03:15:20.074Z,-3.10
2018-12-27T03:16:56.318Z,-3.10
2018-12-27T03:18:32.640Z,-3.10
2018-12-27T03:20:08.932Z,-3.10
2018-12-27T03:21:45.216Z,-3.10
2018-12-27T03:23:21.534Z,-3.10
2018-12-27T03:24:57.819Z,-3.10
2018-12-27T03:26:34.325Z,-3.00
2018-12-27T03:28:10.825Z,-2.90
2018-12-27T03:29:47.307Z,-2.80
2018-12-27T03:31:23.684Z,-2.80
2018-12-27T03:32:59.859Z,-2.80
2018-12-27T03:34:36.063Z,-2.80
2018-12-27T03:36:12.336Z,-2.80
2018-12-27T03:37:48.517Z,-2.80
2018-12-27T03:39:24.701Z,-2.80
2018-12-27T03:41:01.068Z,-2.80
2018-12-27T03:42:37.280Z,-2.90
2018-12-27T03:44:13.457Z,-2.90
2018-12-27T03:45:49.679Z,-2.90
2018-12-27T03:47:25.918Z,-3.00
2018-12-27T03:49:02.114Z,-3.00
2018-12-27T03:50:38.369Z,-3.00
2018-12-27T03:52:14.613Z,-3.00
2018-12-27T03:53:50.805Z,-2.90
2018-12-27T03:55:27.008Z,-2.80
2018-12-27T03:57:03.224Z,-2.70
2018-12-27T03:58:39.487Z,-2.70
2018-12-27T04:00:15.675Z,-2.70
2018-12-27T04:01:51.928Z,-2.60
2018-12-27T04:03:28.138Z,-2.60
2018-12-27T04:05:04.342Z,-2.60
2018-12-27T04:06:40.574Z,-2.60
2018-12-27T04:08:16.788Z,-2.60
2018-12-27T04:09:53.110Z,-2.60
2018-12-27T04:11:29.342Z,-2.60
2018-12-27T04:13:05.566Z,-2.60
2018-12-27T04:14:41.754Z,-2.60
2018-12-27T04:16:17.799Z,-2.60
2018-12-27T04:17:53.829Z,-2.60
2018-12-27T04:19:29.930Z,-2.60
2018-12-27T04:21:06.084Z,-2.60
2018-12-27T04:22:42.213Z,-2.70
2018-12-27T04:24:20.207Z,-2.70
2018-12-27T04:25:57.680Z,-2.80
2018-12-27T04:27:33.823Z,-2.80
2018-12-27T04:29:10.009Z,-2.90
2018-12-27T04:30:46.732Z,-3.00
2018-12-27T04:32:23.941Z,-3.00
2018-12-27T04:34:00.425Z,-3.00
2018-12-27T04:35:37.553Z,-3.10
2018-12-27T04:37:13.799Z,-3.10
2018-12-27T04:38:49.895Z,-3.10
2018-12-27T04:40:26.098Z,-3.10
2018-12-27T04:42:02.385Z,-3.10
2018-12-27T04:43:38.620Z,-3.10
2018-12-27T04:45:14.678Z,-3.10
2018-12-27T04:46:50.831Z,-3.10
2018-12-27T04:48:26.964Z,-3.10
2018-12-27T04:50:03.065Z,-3.10
2018-12-27T04:51:39.102Z,-3.10
2018-12-27T04:53:15.186Z,-3.10
2018-12-27T04:54:51.254Z,-3.10
2018-12-27T04:56:27.315Z,-3.10
2018-12-27T04:58:03.482Z,-3.10
2018-12-27T04:59:39.537Z,-3.10
2018-12-27T05:01:15.581Z,-3.00
2018-12-27T05:02:51.679Z,-3.00
2018-12-27T05:04:27.793Z,-3.00
2018-12-27T05:06:04.012Z,-3.00
2018-12-27T05:07:40.193Z,-3.00
2018-12-27T05:09:16.383Z,-3.00
2018-12-27T05:10:52.510Z,-3.00
2018-12-27T05:12:28.591Z,-3.00
2018-12-27T05:14:04.777Z,-3.00
2018-12-27T05:15:40.973Z,-3.00
2018-12-27T05:17:17.058Z,-3.00
2018-12-27T05:18:53.257Z,-3.10
2018-12-27T05:20:29.446Z,-3.10
2018-12-27T05:22:05.492Z,-3.10
2018-12-27T05:23:41.572Z,-3.10
2018-12-27T05:25:17.689Z,-3.10
2018-12-27T05:26:53.918Z,-3.10
2018-12-27T05:28:30.024Z,-3.20
2018-12-27T05:30:06.386Z,-3.20
2018-12-27T05:31:42.653Z,-3.20
2018-12-27T05:33:18.731Z,-3.20
2018-12-27T05:34:54.966Z,-3.20
2018-12-27T05:36:31.034Z,-3.20
2018-12-27T05:38:07.101Z,-3.20
2018-12-27T05:39:43.231Z,-3.20
2018-12-27T05:41:19.403Z,-3.20
2018-12-27T05:42:55.552Z,-3.20
2018-12-27T05:44:31.667Z,-3.30
2018-12-27T05:46:07.694Z,-3.20
2018-12-27T05:47:43.766Z,-3.30
2018-12-27T05:49:19.881Z,-3.30
2018-12-27T05:50:56.029Z,-3.30
2018-12-27T05:52:32.128Z,-3.30
2018-12-27T05:54:08.182Z,-3.40
2018-12-27T05:55:44.220Z,-3.40
2018-12-27T05:57:20.337Z,-3.40
2018-12-27T05:58:56.389Z,-3.50
2018-12-27T06:00:32.434Z,-3.50
2018-12-27T06:02:08.486Z,-3.50
2018-12-27T06:03:44.563Z,-3.60
2018-12-27T06:05:20.601Z,-3.60
2018-12-27T06:06:56.651Z,-3.60
2018-12-27T06:08:32.910Z,-3.70
2018-12-27T06:10:09.104Z,-3.70
2018-12-27T06:11:45.296Z,-3.70
2018-12-27T06:13:21.446Z,-3.70
2018-12-27T06:14:57.697Z,-3.70
2018-12-27T06:16:33.821Z,-3.70
2018-12-27T06:18:09.903Z,-3.80
2018-12-27T06:19:46.045Z,-3.80
2018-12-27T06:21:22.221Z,-3.80
2018-12-27T06:22:58.310Z,-3.60
2018-12-27T06:24:34.446Z,-3.80
2018-12-27T06:26:10.489Z,-3.80
2018-12-27T06:27:46.532Z,-3.80
2018-12-27T06:29:22.671Z,-3.80
2018-12-27T06:30:58.710Z,-3.80
2018-12-27T06:32:34.838Z,-3.90
2018-12-27T06:34:10.894Z,-3.90
2018-12-27T06:35:47.065Z,-3.90
2018-12-27T06:37:23.210Z,-3.90
2018-12-27T06:38:59.483Z,-3.90
2018-12-27T06:40:35.628Z,-3.90
2018-12-27T06:42:11.870Z,-3.90
2018-12-27T06:43:48.081Z,-3.90
2018-12-27T06:45:24.141Z,-3.70
2018-12-27T06:47:00.267Z,-3.90
2018-12-27T06:48:36.344Z,-3.90
2018-12-27T06:50:12.389Z,-3.90
2018-12-27T06:51:48.453Z,-3.90
2018-12-27T06:53:24.634Z,-3.90
2018-12-27T06:55:00.686Z,-3.90
2018-12-27T06:56:36.758Z,-3.90
2018-12-27T06:58:12.796Z,-3.90
2018-12-27T06:59:48.870Z,-3.80
2018-12-27T07:01:24.915Z,-3.80
2018-12-27T07:03:01.034Z,-3.80
2018-12-27T07:04:37.168Z,-3.90
2018-12-27T07:06:13.295Z,-3.80
2018-12-27T07:07:49.377Z,-3.80
2018-12-27T07:09:25.527Z,-3.90
2018-12-27T07:11:01.582Z,-3.70
2018-12-27T07:12:37.753Z,-3.70
2018-12-27T07:14:13.939Z,-3.60
2018-12-27T07:15:50.010Z,-3.60
2018-12-27T07:17:26.131Z,-3.60
2018-12-27T07:19:08.871Z,-3.60
2018-12-27T07:20:45.042Z,-3.60
2018-12-27T07:22:21.095Z,-3.50
2018-12-27T07:23:57.160Z,-3.50
2018-12-27T07:25:33.279Z,-3.50
2018-12-27T07:27:09.406Z,-3.50
2018-12-27T07:28:46.446Z,-3.50
2018-12-27T07:30:22.506Z,-3.50
2018-12-27T07:31:58.571Z,-3.40
2018-12-27T07:33:34.629Z,-3.40
2018-12-27T07:35:10.669Z,-3.30
2018-12-27T07:36:46.713Z,-3.20
2018-12-27T07:38:22.844Z,-3.20
2018-12-27T07:39:58.992Z,-3.10
2018-12-27T07:41:35.049Z,-3.10
2018-12-27T07:43:11.245Z,-3.10
2018-12-27T07:44:47.326Z,-3.10
2018-12-27T07:46:23.442Z,-3.10
2018-12-27T07:47:59.502Z,-3.00
2018-12-27T07:49:35.597Z,-3.00
2018-12-27T07:51:11.725Z,-2.90
2018-12-27T07:52:48.682Z,-2.80
2018-12-27T07:54:25.022Z,-2.80
2018-12-27T07:56:01.051Z,-2.70
2018-12-27T07:57:38.014Z,-2.60
2018-12-27T07:59:14.094Z,-2.50
2018-12-27T08:00:50.218Z,-2.60
2018-12-27T08:02:26.264Z,-2.40
2018-12-27T08:04:02.380Z,-2.30
2018-12-27T08:05:38.413Z,-2.20
2018-12-27T08:07:14.537Z,-2.10
2018-12-27T08:08:50.613Z,-2.00
2018-12-27T08:10:26.686Z,-1.90
2018-12-27T08:12:02.783Z,-1.80
2018-12-27T08:13:38.925Z,-1.70
2018-12-27T08:15:15.059Z,-1.60
2018-12-27T08:16:51.292Z,-1.50
2018-12-27T08:18:27.476Z,-1.40
2018-12-27T08:20:03.893Z,-1.30
2018-12-27T08:21:40.179Z,-1.10
2018-12-27T08:23:16.257Z,-1.10
2018-12-27T08:24:52.416Z,-1.00
2018-12-27T08:26:28.678Z,-0.90
2018-12-27T08:28:04.807Z,-0.80
2018-12-27T08:29:40.973Z,-0.70
2018-12-27T08:31:16.988Z,-0.50
2018-12-27T08:32:53.314Z,-0.40
2018-12-27T08:34:29.554Z,-0.30
2018-12-27T08:36:05.763Z,-0.20
2018-12-27T08:37:41.893Z,-0.10
2018-12-27T08:39:18.074Z,0.00
2018-12-27T08:40:54.294Z,0.20
2018-12-27T08:42:30.509Z,0.30
2018-12-27T08:44:06.609Z,0.50
2018-12-27T08:45:42.685Z,0.60
2018-12-27T08:47:18.798Z,0.70
2018-12-27T08:48:54.895Z,0.70
2018-12-27T08:50:31.220Z,0.80
2018-12-27T08:52:07.337Z,0.90
2018-12-27T08:53:43.537Z,0.90
2018-12-27T08:55:19.558Z,1.00
2018-12-27T08:56:55.718Z,1.00
2018-12-27T08:58:31.743Z,1.10
2018-12-27T09:00:08.280Z,1.20
2018-12-27T09:01:44.383Z,1.30
2018-12-27T09:03:20.462Z,1.40
2018-12-27T09:04:56.578Z,1.50
2018-12-27T09:06:32.672Z,1.60
2018-12-27T09:08:08.805Z,1.70
2018-12-27T09:09:44.917Z,1.70
2018-12-27T09:11:21.013Z,1.70
2018-12-27T09:12:57.146Z,1.80
2018-12-27T09:14:34.341Z,1.80
2018-12-27T09:16:11.427Z,1.80
2018-12-27T09:17:47.519Z,1.90
2018-12-27T09:19:23.616Z,1.90
2018-12-27T09:20:59.622Z,2.00
2018-12-27T09:22:35.854Z,2.00
2018-12-27T09:24:12.035Z,2.00
2018-12-27T09:25:48.189Z,2.00
2018-12-27T09:27:24.226Z,2.00
2018-12-27T09:29:00.374Z,2.10
2018-12-27T09:30:36.488Z,2.10
2018-12-27T09:32:12.503Z,2.20
2018-12-27T09:33:48.636Z,2.30
2018-12-27T09:35:26.503Z,2.30
2018-12-27T09:37:02.538Z,2.30
2018-12-27T09:38:38.594Z,2.40
2018-12-27T09:40:14.614Z,2.40
2018-12-27T09:41:50.653Z,2.40
2018-12-27T09:43:26.682Z,2.30
2018-12-27T09:45:02.854Z,2.30
2018-12-27T09:46:39.030Z,2.40
2018-12-27T09:48:15.107Z,2.40
2018-12-27T09:49:51.205Z,2.40
2018-12-27T09:51:27.321Z,2.40
2018-12-27T09:53:03.519Z,2.50
2018-12-27T09:54:39.603Z,2.50
2018-12-27T09:56:15.736Z,2.50
2018-12-27T09:57:51.759Z,2.60
2018-12-27T09:59:27.841Z,2.60
2018-12-27T10:01:04.034Z,2.70
2018-12-27T10:02:40.211Z,2.70
2018-12-27T10:04:16.161Z,2.80
2018-12-27T10:05:52.201Z,2.80
2018-12-27T10:07:28.214Z,2.80
2018-12-27T10:09:05.270Z,2.80
2018-12-27T10:10:41.338Z,2.80
2018-12-27T10:12:17.493Z,2.80
2018-12-27T10:13:53.586Z,2.80
2018-12-27T10:15:30.158Z,2.80
2018-12-27T10:17:06.316Z,2.80
2018-12-27T10:18:42.405Z,2.80
2018-12-27T10:20:18.495Z,2.80
2018-12-27T10:21:54.565Z,2.80
2018-12-27T10:23:30.598Z,2.80
2018-12-27T10:25:06.917Z,2.80
2018-12-27T10:26:43.028Z,2.80
2018-12-27T10:28:19.089Z,2.90
2018-12-27T10:29:55.330Z,2.90
2018-12-27T10:31:34.373Z,2.90
2018-12-27T10:33:10.698Z,2.90
2018-12-27T10:34:46.749Z,2.90
2018-12-27T10:36:22.936Z,2.90
2018-12-27T10:37:59.192Z,2.80
2018-12-27T10:39:35.257Z,2.80
2018-12-27T10:41:11.324Z,2.80
2018-12-27T10:42:47.430Z,2.80
2018-12-27T10:44:23.550Z,2.70
2018-12-27T10:45:59.558Z,2.80
2018-12-27T10:47:35.632Z,2.70
2018-12-27T10:49:11.738Z,2.80
2018-12-27T10:50:48.886Z,2.90
2018-12-27T10:52:24.934Z,2.90
2018-12-27T10:54:01.059Z,3.00
2018-12-27T10:55:37.167Z,3.00
2018-12-27T10:57:13.213Z,3.10
2018-12-27T10:58:49.214Z,3.10
2018-12-27T11:00:25.233Z,3.10
2018-12-27T11:02:01.348Z,3.10
2018-12-27T11:03:37.526Z,3.10
2018-12-27T11:05:13.666Z,3.10
2018-12-27T11:06:49.893Z,3.10
2018-12-27T11:08:25.902Z,3.10
2018-12-27T11:10:01.969Z,3.10
2018-12-27T11:11:38.131Z,3.00
2018-12-27T11:13:14.197Z,3.10
2018-12-27T11:14:50.223Z,3.10
2018-12-27T11:16:26.402Z,3.20
2018-12-27T11:18:02.490Z,3.30
2018-12-27T11:19:38.627Z,3.30
2018-12-27T11:21:14.754Z,3.30
2018-12-27T11:22:50.814Z,3.30
2018-12-27T11:24:26.838Z,3.20
2018-12-27T11:26:02.974Z,3.20
2018-12-27T11:27:39.268Z,3.10
2018-12-27T11:29:15.381Z,3.20
2018-12-27T11:30:51.504Z,3.20
2018-12-27T11:32:27.623Z,3.20
2018-12-27T11:34:03.911Z,3.30
2018-12-27T11:35:39.991Z,3.30
2018-12-27T11:37:16.209Z,3.30
2018-12-27T11:38:52.234Z,3.40
2018-12-27T11:40:28.279Z,3.40
2018-12-27T11:42:04.349Z,3.50
2018-12-27T11:43:40.571Z,3.60
2018-12-27T11:45:16.601Z,3.60
2018-12-27T11:46:52.685Z,3.80
2018-12-27T11:48:28.755Z,3.90
2018-12-27T11:50:05.277Z,3.90
2018-12-27T11:51:41.390Z,4.00
2018-12-27T11:53:17.633Z,4.10
2018-12-27T11:54:53.650Z,4.20
2018-12-27T11:56:29.836Z,4.20
2018-12-27T11:58:06.032Z,4.30
2018-12-27T11:59:42.178Z,4.40
2018-12-27T12:01:18.317Z,4.50
2018-12-27T12:02:54.410Z,4.60
2018-12-27T12:04:30.574Z,4.70
2018-12-27T12:06:06.598Z,4.80
2018-12-27T12:07:45.324Z,4.80
2018-12-27T12:09:21.334Z,4.80
2018-12-27T12:10:57.546Z,4.90
2018-12-27T12:12:34.027Z,4.90
2018-12-27T12:14:10.687Z,4.80
2018-12-27T12:15:47.329Z,4.80
2018-12-27T12:17:23.350Z,4.70
2018-12-27T12:18:59.495Z,4.60
2018-12-27T12:20:35.802Z,4.50
2018-12-27T12:22:11.873Z,4.50
2018-12-27T12:23:48.037Z,4.50
2018-12-27T12:25:24.142Z,4.50
2018-12-27T12:27:00.424Z,4.50
2018-12-27T12:28:36.557Z,4.60
2018-12-27T12:30:12.653Z,4.60
2018-12-27T12:31:48.823Z,4.60
2018-12-27T12:33:25.001Z,4.70
2018-12-27T12:35:01.067Z,4.70
2018-12-27T12:36:37.232Z,4.70
2018-12-27T12:38:13.440Z,4.70
2018-12-27T12:39:49.537Z,4.80
2018-12-27T12:41:25.630Z,4.80
2018-12-27T12:43:01.756Z,4.80
2018-12-27T12:44:37.859Z,4.90
2018-12-27T12:46:13.985Z,4.90
2018-12-27T12:47:49.982Z,4.90
2018-12-27T12:49:26.064Z,4.90
2018-12-27T12:51:02.160Z,4.90
2018-12-27T12:52:39.269Z,4.90
2018-12-27T12:54:15.489Z,4.90
2018-12-27T12:55:51.573Z,4.90
2018-12-27T12:57:27.678Z,4.90
2018-12-27T12:59:03.759Z,4.80
2018-12-27T13:00:39.873Z,4.80
2018-12-27T13:02:16.042Z,4.70
2018-12-27T13:03:52.158Z,4.70
2018-12-27T13:05:28.238Z,4.70
2018-12-27T13:07:04.633Z,4.70
2018-12-27T13:08:40.733Z,4.70
2018-12-27T13:10:16.829Z,4.70
2018-12-27T13:11:52.844Z,4.70
2018-12-27T13:13:28.904Z,4.70
2018-12-27T13:15:05.269Z,4.70
2018-12-27T13:16:41.357Z,4.70
2018-12-27T13:18:17.921Z,4.70
2018-12-27T13:19:53.967Z,4.70
2018-12-27T13:21:30.100Z,4.70
2018-12-27T13:23:06.221Z,4.70
2018-12-27T13:24:42.367Z,4.70
2018-12-27T13:26:19.384Z,4.70
2018-12-27T13:27:55.420Z,4.70
2018-12-27T13:29:31.579Z,4.70
2018-12-27T13:31:07.611Z,4.70
2018-12-27T13:32:43.671Z,4.70
2018-12-27T13:34:19.882Z,4.60
2018-12-27T13:35:56.038Z,4.60
2018-12-27T13:37:32.109Z,4.60
2018-12-27T13:39:08.801Z,4.60
2018-12-27T13:40:44.799Z,4.60
2018-12-27T13:42:20.969Z,4.50
2018-12-27T13:43:57.106Z,4.50
2018-12-27T13:45:33.211Z,4.40
2018-12-27T13:47:09.295Z,4.30
2018-12-27T13:48:45.400Z,4.30
2018-12-27T13:50:21.510Z,4.20
2018-12-27T13:51:57.602Z,4.20
2018-12-27T13:53:33.681Z,4.10
2018-12-27T13:55:09.893Z,4.00
2018-12-27T13:56:46.002Z,3.90
2018-12-27T13:58:22.006Z,3.90
2018-12-27T13:59:58.132Z,3.80
2018-12-27T14:01:34.147Z,3.70
2018-12-27T14:03:10.226Z,3.70
2018-12-27T14:04:46.349Z,3.60
2018-12-27T14:06:22.398Z,3.50
2018-12-27T14:07:58.420Z,3.50
2018-12-27T14:09:34.561Z,3.40
2018-12-27T14:11:10.789Z,3.40
2018-12-27T14:12:46.946Z,3.30
2018-12-27T14:14:23.009Z,3.30
2018-12-27T14:15:59.216Z,3.20
2018-12-27T14:17:35.327Z,3.20
2018-12-27T14:19:11.353Z,3.20
2018-12-27T14:20:47.512Z,3.10
2018-12-27T14:22:23.578Z,3.10
2018-12-27T14:23:59.614Z,3.00
2018-12-27T14:25:35.723Z,3.00
2018-12-27T14:27:11.789Z,2.90
2018-12-27T14:28:49.014Z,2.90
2018-12-27T14:30:25.226Z,2.80
2018-12-27T14:32:01.241Z,2.80
2018-12-27T14:33:37.273Z,2.80
2018-12-27T14:35:13.404Z,2.70
2018-12-27T14:36:49.598Z,2.70
2018-12-27T14:38:25.705Z,2.70
2018-12-27T14:40:01.952Z,2.60
2018-12-27T14:41:38.123Z,2.60
2018-12-27T14:43:14.149Z,2.60
2018-12-27T14:44:50.219Z,2.60
2018-12-27T14:46:26.248Z,2.50
2018-12-27T14:48:02.312Z,2.50
2018-12-27T14:49:38.498Z,2.40
2018-12-27T14:51:14.681Z,2.40
2018-12-27T14:52:50.752Z,2.30
2018-12-27T14:54:26.802Z,2.30
2018-12-27T14:56:02.894Z,2.30
2018-12-27T14:57:38.989Z,2.20
2018-12-27T14:59:15.041Z,2.20
2018-12-27T15:00:51.224Z,2.10
2018-12-27T15:02:27.329Z,2.10
2018-12-27T15:04:03.463Z,2.10
2018-12-27T15:05:39.584Z,2.10
2018-12-27T15:07:15.878Z,2.00
2018-12-27T15:08:51.938Z,2.00
2018-12-27T15:10:28.106Z,2.00
2018-12-27T15:12:04.122Z,2.00
2018-12-27T15:13:40.154Z,1.90
2018-12-27T15:15:16.371Z,1.90
2018-12-27T15:16:52.394Z,1.90
2018-12-27T15:18:28.404Z,1.80
2018-12-27T15:20:04.896Z,1.80
2018-12-27T15:21:40.923Z,1.70
2018-12-27T15:23:16.941Z,1.70
2018-12-27T15:24:54.133Z,1.60
2018-12-27T15:26:30.358Z,1.60
2018-12-27T15:28:06.370Z,1.50
2018-12-27T15:29:42.436Z,1.50
2018-12-27T15:31:18.556Z,1.50
2018-12-27T15:32:54.676Z,1.40
2018-12-27T15:34:30.887Z,1.40
2018-12-27T15:36:06.978Z,1.40
2018-12-27T15:37:43.022Z,1.30
2018-12-27T15:39:18.993Z,1.30
2018-12-27T15:40:55.062Z,1.20
2018-12-27T15:42:31.114Z,1.20
2018-12-27T15:44:07.294Z,1.10
2018-12-27T15:45:43.343Z,1.00
2018-12-27T15:47:19.398Z,1.00
2018-12-27T15:48:55.425Z,0.90
2018-12-27T15:50:31.628Z,0.90
2018-12-27T15:52:07.700Z,0.80
2018-12-27T15:53:43.729Z,0.80
2018-12-27T15:55:19.761Z,0.70
2018-12-27T15:56:55.827Z,0.70
2018-12-27T15:58:31.874Z,0.70
2018-12-27T16:00:08.587Z,0.70
2018-12-27T16:01:44.661Z,0.60
2018-12-27T16:03:20.765Z,0.60
2018-12-27T16:04:56.862Z,0.60
2018-12-27T16:06:32.918Z,0.50
2018-12-27T16:08:08.936Z,0.50
2018-12-27T16:09:44.981Z,0.40
2018-12-27T16:11:21.139Z,0.40
2018-12-27T16:12:57.253Z,0.40
2018-12-27T16:14:33.375Z,0.40
2018-12-27T16:16:09.431Z,0.40
2018-12-27T16:17:45.589Z,0.40
2018-12-27T16:19:21.725Z,0.50
2018-12-27T16:20:57.814Z,0.50
2018-12-27T16:22:33.931Z,0.50
2018-12-27T16:24:10.043Z,0.60
2018-12-27T16:25:46.095Z,0.60
2018-12-27T16:27:22.201Z,0.60
2018-12-27T16:28:58.251Z,0.60
2018-12-27T16:30:34.482Z,0.60
2018-12-27T16:32:10.623Z,0.60
2018-12-27T16:33:46.733Z,0.60
2018-12-27T16:35:22.994Z,0.60
2018-12-27T16:36:59.154Z,0.60
2018-12-27T16:38:35.183Z,0.70
2018-12-27T16:40:11.296Z,0.70
2018-12-27T16:41:47.515Z,0.70
2018-12-27T16:43:23.562Z,0.70
2018-12-27T16:44:59.666Z,0.70
2018-12-27T16:46:35.864Z,0.60
2018-12-27T16:48:11.901Z,0.60
2018-12-27T16:49:47.952Z,0.50
2018-12-27T16:51:24.031Z,0.40
2018-12-27T16:53:00.242Z,0.40
2018-12-27T16:54:36.349Z,0.30
2018-12-27T16:56:12.407Z,0.30
2018-12-27T16:57:48.640Z,0.30
2018-12-27T16:59:25.016Z,0.20
2018-12-27T17:01:01.143Z,0.20
2018-12-27T17:02:37.322Z,0.10
2018-12-27T17:04:13.370Z,0.10
2018-12-27T17:05:49.390Z,0.10
2018-12-27T17:07:25.450Z,0.10
2018-12-27T17:09:01.597Z,0.00
2018-12-27T17:10:39.012Z,0.00
2018-12-27T17:12:15.114Z,0.00
2018-12-27T17:13:51.150Z,0.00
2018-12-27T17:15:27.298Z,0.00
2018-12-27T17:17:03.471Z,0.00
2018-12-27T17:18:39.507Z,-0.10
2018-12-27T17:20:15.615Z,-0.10
2018-12-27T17:21:51.756Z,-0.10
2018-12-27T17:23:27.936Z,-0.10
2018-12-27T17:25:04.201Z,-0.10
2018-12-27T17:26:40.397Z,-0.10
2018-12-27T17:28:16.514Z,0.00
2018-12-27T17:29:52.634Z,0.00
2018-12-27T17:31:28.756Z,0.10
2018-12-27T17:33:04.930Z,0.20
2018-12-27T17:34:41.034Z,0.20
2018-12-27T17:36:17.319Z,0.20
2018-12-27T17:37:53.508Z,0.30
2018-12-27T17:39:29.519Z,0.30
2018-12-27T17:41:05.657Z,0.20
2018-12-27T17:42:41.787Z,0.20
2018-12-27T17:44:18.066Z,0.20
2018-12-27T17:45:54.103Z,0.10
2018-12-27T17:47:30.164Z,0.10
2018-12-27T17:49:06.203Z,0.10
2018-12-27T17:50:42.409Z,0.00
2018-12-27T17:52:18.642Z,0.10
2018-12-27T17:53:54.674Z,0.10
2018-12-27T17:55:30.720Z,0.10
2018-12-27T17:57:06.874Z,0.20
2018-12-27T17:58:42.969Z,0.30
2018-12-27T18:00:19.225Z,0.30
2018-12-27T18:01:55.254Z,0.30
2018-12-27T18:03:31.326Z,0.30
2018-12-27T18:05:07.445Z,0.40
2018-12-27T18:06:43.558Z,0.40
2018-12-27T18:08:19.605Z,0.40
2018-12-27T18:09:55.710Z,0.30
2018-12-27T18:11:32.654Z,0.30
2018-12-27T18:13:08.884Z,0.30
2018-12-27T18:14:44.932Z,0.20
2018-12-27T18:16:21.049Z,0.20
2018-12-27T18:17:57.120Z,0.10
2018-12-27T18:19:33.146Z,0.10
2018-12-27T18:21:09.252Z,0.00
2018-12-27T18:22:45.312Z,-0.10
2018-12-27T18:24:21.449Z,-0.10
2018-12-27T18:25:57.502Z,-0.10
2018-12-27T18:27:33.550Z,-0.20
2018-12-27T18:29:09.693Z,-0.20
2018-12-27T18:30:45.735Z,-0.20
2018-12-27T18:32:21.825Z,-0.20
2018-12-27T18:33:57.905Z,-0.20
2018-12-27T18:35:34.008Z,-0.30
2018-12-27T18:37:10.165Z,-0.30
2018-12-27T18:38:46.276Z,-0.30
2018-12-27T18:40:22.381Z,-0.40
2018-12-27T18:41:58.480Z,-0.40
2018-12-27T18:43:34.527Z,-0.40
2018-12-27T18:45:10.625Z,-0.40
2018-12-27T18:46:46.686Z,-0.40
2018-12-27T18:48:22.742Z,-0.30
2018-12-27T18:49:58.766Z,-0.30
2018-12-27T18:51:34.906Z,-0.30
2018-12-27T18:53:11.059Z,-0.30
2018-12-27T18:54:47.105Z,-0.30
2018-12-27T18:56:23.202Z,-0.30
2018-12-27T18:57:59.306Z,-0.30
2018-12-27T18:59:35.356Z,-0.30
2018-12-27T19:01:11.557Z,-0.30
2018-12-27T19:02:47.681Z,-0.30
2018-12-27T19:04:23.752Z,-0.30
2018-12-27T19:05:59.945Z,-0.40
2018-12-27T19:07:35.962Z,-0.30
2018-12-27T19:09:12.165Z,-0.30
2018-12-27T19:11:24.743Z,-0.40
2018-12-27T19:13:11.746Z,-0.40
2018-12-27T19:14:48.410Z,-0.30
2018-12-27T19:16:24.446Z,-0.30
2018-12-27T19:18:13.750Z,-0.40
2018-12-27T19:19:49.962Z,-0.30
2018-12-27T19:21:41.140Z,-0.30
2018-12-27T19:23:20.682Z,-0.30
2018-12-27T19:24:56.806Z,-0.30
2018-12-27T19:26:32.864Z,-0.30
2018-12-27T19:28:09.024Z,-0.30
2018-12-27T19:29:45.091Z,-0.40
2018-12-27T19:31:21.290Z,-0.30
2018-12-27T19:32:57.432Z,-0.30
2018-12-27T19:34:33.530Z,-0.30
2018-12-27T19:36:09.653Z,-0.30
2018-12-27T19:37:51.860Z,-0.30
2018-12-27T19:39:23.630Z,-0.30
2018-12-27T19:40:59.810Z,-0.30
2018-12-27T19:42:35.866Z,-0.30
2018-12-27T19:44:12.077Z,-0.30
2018-12-27T19:45:48.129Z,-0.30
2018-12-27T19:47:24.262Z,-0.30
2018-12-27T19:49:00.561Z,-0.30
2018-12-27T19:50:36.619Z,-0.30
2018-12-27T19:52:12.757Z,-0.30
2018-12-27T19:53:48.967Z,-0.30
2018-12-27T19:55:25.090Z,-0.30
2018-12-27T19:57:01.338Z,-0.40
2018-12-27T19:58:37.426Z,-0.40
2018-12-27T20:00:13.772Z,-0.30
2018-12-27T20:01:49.984Z,-0.30
2018-12-27T20:03:26.258Z,-0.40
2018-12-27T20:05:02.337Z,-0.40
2018-12-27T20:06:38.650Z,-0.40
2018-12-27T20:08:14.773Z,-0.40
2018-12-27T20:09:50.992Z,-0.50
2018-12-27T20:11:27.256Z,-0.50
2018-12-27T20:13:03.327Z,-0.50
2018-12-27T20:14:39.545Z,-0.50
2018-12-27T20:16:15.677Z,-0.50
2018-12-27T20:17:51.908Z,-0.50
2018-12-27T20:19:28.142Z,-0.50
2018-12-27T20:21:04.335Z,-0.50
2018-12-27T20:22:40.545Z,-0.50
2018-12-27T20:24:16.629Z,-0.50
2018-12-27T20:25:52.714Z,-0.50
2018-12-27T20:27:28.835Z,-0.40
2018-12-27T20:29:05.025Z,-0.40
2018-12-27T20:30:41.219Z,-0.40
2018-12-27T20:32:17.417Z,-0.40
2018-12-27T20:33:53.510Z,-0.40
2018-12-27T20:35:29.633Z,-0.40
2018-12-27T20:37:05.894Z,-0.30
2018-12-27T20:38:42.301Z,-0.30
2018-12-27T20:40:18.515Z,-0.30
2018-12-27T20:41:54.636Z,-0.30
2018-12-27T20:43:30.911Z,-0.30
2018-12-27T20:45:07.112Z,-0.30
2018-12-27T20:46:43.241Z,-0.30
2018-12-27T20:48:19.422Z,-0.30
2018-12-27T20:49:55.446Z,-0.30
2018-12-27T20:51:31.630Z,-0.30
2018-12-27T20:53:07.800Z,-0.30
2018-12-27T20:54:43.874Z,-0.30
2018-12-27T20:56:20.342Z,-0.30
2018-12-27T20:57:56.378Z,-0.20
2018-12-27T20:59:32.526Z,-0.30